Time;durP1;ratioP1;P1;durP2;ratioP2;P2;SDS_P1;SDS_P2;PMS_P1;PMS_P2;Temp;Humidity;BMP_temperature;BMP_pressure;BME280_temperature;BME280_humidity;BME280_pressure;Samples;Min_cycle;Max_cycle;Signal;HPM_P1;HPM_P2
2022/10/22 00:00:38;;;;;;;4.53;2.70;;;;;;;21.81;50.64;100890.81;4999416;28;20045;-71
2022/10/22 00:03:04;;;;;;;4.65;3.17;;;;;;;21.76;50.41;100894.06;5012371;28;20046;-70
2022/10/22 00:05:29;;;;;;;6.40;3.05;;;;;;;21.74;50.51;100882.00;4998398;28;20049;-71
2022/10/22 00:07:55;;;;;;;3.88;3.00;;;;;;;21.82;50.35;100887.16;5019003;28;20045;-71
2022/10/22 00:10:20;;;;;;;5.13;2.92;;;;;;;21.86;50.40;100885.75;5018826;28;20529;-71
2022/10/22 00:12:46;;;;;;;6.70;3.08;;;;;;;21.85;50.54;100887.59;5010709;28;20073;-71
2022/10/22 00:15:11;;;;;;;5.60;2.92;;;;;;;21.83;50.15;100886.16;5011900;28;20050;-71
2022/10/22 00:17:37;;;;;;;3.88;2.83;;;;;;;21.78;50.50;100889.38;5013035;28;20091;-71
2022/10/22 00:20:04;;;;;;;3.92;2.63;;;;;;;21.78;50.80;100893.84;5012856;28;20052;-71
2022/10/22 00:22:29;;;;;;;4.25;2.75;;;;;;;21.73;50.48;100885.66;5014129;28;20104;-70
2022/10/22 00:24:55;;;;;;;5.15;3.15;;;;;;;21.83;50.36;100892.25;4993886;28;20067;-70
2022/10/22 00:27:20;;;;;;;6.63;2.85;;;;;;;21.82;50.29;100903.06;4996768;28;20045;-71
2022/10/22 00:29:47;;;;;;;3.42;2.53;;;;;;;21.78;50.79;100902.63;4992616;28;20119;-71
2022/10/22 00:32:12;;;;;;;4.65;3.00;;;;;;;21.79;50.80;100911.41;5014363;28;20406;-71
2022/10/22 00:34:38;;;;;;;4.45;2.88;;;;;;;21.77;50.82;100908.94;5013698;28;20501;-70
2022/10/22 00:37:03;;;;;;;4.07;2.92;;;;;;;21.80;50.58;100910.38;5012117;28;20046;-71
2022/10/22 00:39:29;;;;;;;7.22;2.80;;;;;;;21.81;50.34;100912.03;5013174;28;20041;-71
2022/10/22 00:41:56;;;;;;;3.70;2.35;;;;;;;21.80;50.60;100915.69;5005807;28;20045;-71
2022/10/22 00:44:59;;;;;;;3.92;2.60;;;;;;;21.76;50.63;100917.09;5009392;28;20057;-71
2022/10/22 00:47:27;;;;;;;3.50;2.63;;;;;;;21.76;50.66;100923.22;5010808;28;20832;-70
2022/10/22 00:49:54;;;;;;;4.07;2.90;;;;;;;21.79;50.44;100917.53;5015152;28;20029;-71
2022/10/22 00:52:21;;;;;;;5.72;2.75;;;;;;;21.74;50.36;100916.47;5012518;28;20396;-71
2022/10/22 00:54:47;;;;;;;4.20;2.55;;;;;;;21.77;50.44;100929.31;5010336;28;20155;-71
2022/10/22 00:57:12;;;;;;;3.40;2.65;;;;;;;21.75;50.30;100929.53;4994269;28;20057;-71
2022/10/22 00:59:38;;;;;;;3.55;2.85;;;;;;;21.76;50.35;100925.84;4992203;28;20060;-70
2022/10/22 01:02:03;;;;;;;3.75;2.50;;;;;;;21.76;50.71;100923.22;5008493;28;20050;-71
2022/10/22 01:04:29;;;;;;;4.95;2.53;;;;;;;21.73;50.36;100923.59;5012588;28;21055;-71
2022/10/22 01:06:55;;;;;;;4.47;2.83;;;;;;;21.76;50.53;100930.34;5014173;28;20092;-71
2022/10/22 01:09:31;;;;;;;4.05;2.50;;;;;;;21.75;50.42;100926.88;5019997;28;20045;-71
2022/10/22 01:12:06;;;;;;;4.70;3.03;;;;;;;21.73;50.70;100928.06;5020055;28;20688;-71
2022/10/22 01:15:05;;;;;;;3.13;2.60;;;;;;;21.74;50.35;100927.88;5019281;28;20044;-71
2022/10/22 01:17:39;;;;;;;3.50;2.60;;;;;;;21.74;50.54;100927.06;5019898;28;20104;-71
2022/10/22 01:20:38;;;;;;;4.15;2.60;;;;;;;21.76;50.41;100928.50;5019508;28;20441;-70
2022/10/22 01:23:21;;;;;;;3.28;2.40;;;;;;;21.71;50.76;100925.59;5016472;28;20845;-71
2022/10/22 01:25:46;;;;;;;3.55;2.40;;;;;;;21.71;50.65;100925.59;5022710;28;20121;-71
2022/10/22 01:29:00;;;;;;;4.22;2.88;;;;;;;21.69;50.38;100925.78;5024059;28;20884;-71
2022/10/22 01:31:30;;;;;;;3.33;2.47;;;;;;;21.72;50.30;100927.22;4969713;28;20518;-71
2022/10/22 01:33:58;;;;;;;3.70;2.60;;;;;;;21.73;50.29;100926.25;5021481;28;20033;-70
2022/10/22 01:36:24;;;;;;;4.43;2.90;;;;;;;21.66;50.62;100922.69;5021202;28;20140;-71
2022/10/22 01:38:51;;;;;;;6.72;3.22;;;;;;;21.65;50.54;100921.88;5016250;28;20041;-71
2022/10/22 01:41:17;;;;;;;6.80;2.35;;;;;;;21.62;50.54;100916.97;5009701;28;20080;-70
2022/10/22 01:43:43;;;;;;;3.80;2.60;;;;;;;21.68;50.63;100920.66;5011907;28;20067;-70
2022/10/22 01:46:11;;;;;;;4.18;2.25;;;;;;;21.66;50.34;100920.84;5011274;28;20029;-70
2022/10/22 01:49:16;;;;;;;5.45;2.70;;;;;;;21.68;50.68;100928.63;5009903;28;20079;-70
2022/10/22 01:51:56;;;;;;;5.60;2.83;;;;;;;21.68;50.32;100926.78;4992648;28;20033;-71
2022/10/22 01:54:39;;;;;;;3.90;2.72;;;;;;;21.68;50.57;100924.13;5011756;28;20137;-71
2022/10/22 01:57:15;;;;;;;4.88;2.70;;;;;;;21.61;50.73;100917.16;5015239;28;20049;-70
2022/10/22 01:59:50;;;;;;;3.83;2.30;;;;;;;21.70;50.32;100927.41;5013131;28;20052;-71
2022/10/22 02:02:42;;;;;;;3.03;2.40;;;;;;;21.66;50.36;100920.03;5011056;28;20041;-73
2022/10/22 02:05:16;;;;;;;2.95;2.28;;;;;;;21.64;50.50;100911.47;5016719;28;20053;-70
2022/10/22 02:07:48;;;;;;;4.05;2.50;;;;;;;21.61;50.75;100907.38;5013838;28;20130;-70
2022/10/22 02:10:15;;;;;;;2.88;2.40;;;;;;;21.60;50.49;100912.84;5009485;28;20128;-71
2022/10/22 02:12:43;;;;;;;6.05;2.47;;;;;;;21.65;50.53;100916.56;5012324;28;20195;-71
2022/10/22 02:15:10;;;;;;;3.42;2.25;;;;;;;21.67;50.72;100916.38;5010849;28;20037;-70
2022/10/22 02:17:38;;;;;;;3.13;2.45;;;;;;;21.60;50.31;100911.03;5011687;28;20034;-70
2022/10/22 02:20:11;;;;;;;2.53;2.33;;;;;;;21.60;50.42;100912.84;5012002;28;20041;-70
2022/10/22 02:22:38;;;;;;;4.28;2.60;;;;;;;21.63;50.74;100905.34;5011549;28;20041;-70
2022/10/22 02:25:08;;;;;;;4.10;2.85;;;;;;;21.57;50.42;100918.53;5011855;28;21831;-71
2022/10/22 02:27:46;;;;;;;3.83;2.60;;;;;;;21.62;50.68;100916.13;5011998;28;20479;-71
2022/10/22 02:30:22;;;;;;;4.63;2.50;;;;;;;21.54;50.52;100919.72;5014080;28;20377;-71
2022/10/22 02:32:55;;;;;;;3.92;2.67;;;;;;;21.63;50.33;100923.91;5014410;28;20045;-70
2022/10/22 02:35:24;;;;;;;2.85;2.20;;;;;;;21.60;50.35;100915.50;5010463;28;20052;-71
2022/10/22 02:37:51;;;;;;;3.40;2.58;;;;;;;21.54;50.51;100925.00;5010612;28;20069;-71
2022/10/22 02:40:18;;;;;;;4.70;2.50;;;;;;;21.59;50.56;100913.88;5014321;28;20046;-71
2022/10/22 02:42:47;;;;;;;3.15;2.47;;;;;;;21.60;50.54;100915.50;5010731;28;20053;-71
2022/10/22 02:45:13;;;;;;;3.33;2.33;;;;;;;21.58;50.29;100907.75;4994423;28;20049;-71
2022/10/22 02:47:38;;;;;;;3.40;2.10;;;;;;;21.58;50.65;100907.75;5012294;28;20550;-71
2022/10/22 02:50:05;;;;;;;3.63;2.78;;;;;;;21.59;50.41;100922.63;5011998;28;20026;-71
2022/10/22 02:52:30;;;;;;;4.57;2.47;;;;;;;21.59;50.65;100913.88;5012178;28;20042;-71
2022/10/22 02:54:56;;;;;;;3.22;2.40;;;;;;;21.60;50.49;100912.84;5012204;28;20053;-71
2022/10/22 02:57:21;;;;;;;3.78;2.63;;;;;;;21.59;50.39;100924.47;5011578;28;20045;-70
2022/10/22 02:59:47;;;;;;;2.67;2.20;;;;;;;21.56;50.40;100923.03;5010300;28;20044;-71
2022/10/22 03:02:12;;;;;;;4.63;2.17;;;;;;;21.58;50.63;100922.84;5009835;28;20061;-71
2022/10/22 03:04:39;;;;;;;3.30;2.38;;;;;;;21.53;50.69;100912.78;5012311;28;20965;-71
2022/10/22 03:07:04;;;;;;;3.70;2.63;;;;;;;21.56;50.35;100906.31;5016090;28;20041;-71
2022/10/22 03:09:30;;;;;;;3.00;2.50;;;;;;;21.43;50.91;100904.34;5006637;28;20146;-71
2022/10/22 03:11:55;;;;;;;3.78;2.70;;;;;;;21.51;50.47;100912.16;4998467;28;20047;-70
2022/10/22 03:14:21;;;;;;;4.28;2.50;;;;;;;21.53;50.38;100907.47;5012192;28;20037;-70
2022/10/22 03:16:46;;;;;;;4.03;2.20;;;;;;;21.56;50.21;100909.78;5010001;28;20520;-70
2022/10/22 03:19:12;;;;;;;5.28;2.55;;;;;;;21.52;50.68;100911.13;5011057;28;20049;-71
2022/10/22 03:21:40;;;;;;;3.25;2.35;;;;;;;21.57;50.48;100908.75;5010953;28;20712;-71
2022/10/22 03:24:13;;;;;;;4.82;2.22;;;;;;;21.52;50.50;100905.00;5010196;28;20061;-71
2022/10/22 03:26:40;;;;;;;2.83;2.38;;;;;;;21.54;50.66;100909.13;5012876;28;20037;-70
2022/10/22 03:29:07;;;;;;;2.28;2.08;;;;;;;21.58;50.35;100915.69;5014238;28;20033;-71
2022/10/22 03:31:32;;;;;;;4.40;2.20;;;;;;;21.53;50.41;100918.06;5008416;28;20124;-71
2022/10/22 03:33:58;;;;;;;3.53;2.40;;;;;;;21.52;50.49;100915.63;5017145;28;20155;-70
2022/10/22 03:36:24;;;;;;;4.53;2.45;;;;;;;21.55;50.59;100924.03;5010887;28;20064;-70
2022/10/22 03:38:50;;;;;;;5.70;2.38;;;;;;;21.59;50.49;100914.69;5022084;28;20254;-71
2022/10/22 03:41:15;;;;;;;2.50;2.00;;;;;;;21.54;50.50;100927.66;5011969;28;20041;-71
2022/10/22 03:43:41;;;;;;;3.22;2.30;;;;;;;21.48;50.53;100927.59;4980577;28;20045;-70
2022/10/22 03:46:07;;;;;;;3.13;2.30;;;;;;;21.49;50.78;100934.53;4965110;28;20131;-70
2022/10/22 03:48:32;;;;;;;8.80;2.70;;;;;;;21.51;50.26;100927.22;5009287;28;20049;-70
2022/10/22 03:50:58;;;;;;;2.65;2.03;;;;;;;21.48;50.36;100917.00;5011310;28;20037;-71
2022/10/22 03:53:23;;;;;;;5.50;2.30;;;;;;;21.48;50.62;100932.91;5014135;28;20092;-71
2022/10/22 03:55:50;;;;;;;3.85;2.45;;;;;;;21.52;50.30;100932.34;5013025;28;20049;-70
2022/10/22 03:58:15;;;;;;;3.63;2.53;;;;;;;21.53;50.53;100931.31;5011263;28;20041;-70
2022/10/22 04:00:41;;;;;;;3.20;2.22;;;;;;;21.51;50.40;100940.47;4995074;28;20135;-70
2022/10/22 04:03:06;;;;;;;3.35;2.50;;;;;;;21.47;50.68;100941.84;5010862;28;20064;-70
2022/10/22 04:05:32;;;;;;;3.38;2.33;;;;;;;21.52;50.27;100942.94;5012534;28;20045;-70
2022/10/22 04:07:58;;;;;;;4.70;2.15;;;;;;;21.49;50.64;100935.34;5008270;28;20082;-70
2022/10/22 04:10:24;;;;;;;4.63;2.60;;;;;;;21.48;50.57;100936.38;5015992;28;20391;-71
2022/10/22 04:12:50;;;;;;;3.35;2.40;;;;;;;21.42;50.61;100934.47;5008272;28;20146;-70
2022/10/22 04:15:16;;;;;;;4.13;2.50;;;;;;;21.48;50.38;100946.16;5011143;28;20347;-71
2022/10/22 04:17:42;;;;;;;5.57;2.50;;;;;;;21.46;50.31;100941.03;5016262;28;20038;-71
2022/10/22 04:20:08;;;;;;;3.30;2.38;;;;;;;21.49;50.18;100940.66;5018265;28;20036;-71
2022/10/22 04:22:34;;;;;;;4.93;2.70;;;;;;;21.46;50.62;100940.22;4991763;28;20065;-70
2022/10/22 04:25:00;;;;;;;2.63;2.33;;;;;;;21.49;50.28;100945.97;5016590;28;20606;-71
2022/10/22 04:27:29;;;;;;;3.92;2.40;;;;;;;21.42;50.58;100945.09;5014375;28;20045;-71
2022/10/22 04:29:55;;;;;;;5.32;2.38;;;;;;;21.50;50.30;100952.91;5008692;28;22100;-70
2022/10/22 04:32:20;;;;;;;4.10;2.67;;;;;;;21.42;50.68;100959.16;5011522;28;20046;-70
2022/10/22 04:34:46;;;;;;;3.42;2.50;;;;;;;21.40;50.40;100955.03;5011224;28;20133;-70
2022/10/22 04:37:11;;;;;;;4.03;2.67;;;;;;;21.52;50.59;100950.88;5014185;28;20041;-71
2022/10/22 04:39:37;;;;;;;3.05;2.33;;;;;;;21.44;50.37;100944.88;5011980;28;20042;-71
2022/10/22 04:42:02;;;;;;;3.70;2.30;;;;;;;21.46;50.34;100958.78;5014826;28;20136;-71
2022/10/22 04:44:28;;;;;;;3.63;2.22;;;;;;;21.40;50.66;100947.91;5015999;28;20742;-71
2022/10/22 04:46:54;;;;;;;3.03;2.25;;;;;;;21.44;50.31;100943.06;5016196;28;20748;-70
2022/10/22 04:49:19;;;;;;;3.70;2.53;;;;;;;21.47;50.34;100944.50;5000964;28;20092;-71
2022/10/22 04:51:45;;;;;;;2.90;2.20;;;;;;;21.47;50.63;100952.47;5014782;28;20088;-71
2022/10/22 04:54:10;;;;;;;3.45;2.38;;;;;;;21.44;50.39;100951.00;5018604;28;20060;-70
2022/10/22 04:56:36;;;;;;;4.32;2.78;;;;;;;21.42;50.64;100945.09;5008258;28;20049;-70
2022/10/22 04:59:07;;;;;;;4.47;2.58;;;;;;;21.36;50.74;100949.31;5016255;28;20092;-70
2022/10/22 05:01:35;;;;;;;3.78;2.25;;;;;;;21.40;50.26;100939.97;5013310;28;20053;-71
2022/10/22 05:04:02;;;;;;;3.25;2.22;;;;;;;21.45;50.29;100946.53;5015097;28;20025;-70
2022/10/22 05:06:29;;;;;;;3.60;2.42;;;;;;;21.40;50.29;100947.91;5021408;28;20135;-71
2022/10/22 05:08:57;;;;;;;4.03;2.22;;;;;;;21.36;50.58;100940.50;5023225;28;20041;-70
2022/10/22 05:11:32;;;;;;;4.20;2.20;;;;;;;21.41;50.17;100952.22;5019821;28;20038;-71
2022/10/22 05:14:00;;;;;;;3.65;2.40;;;;;;;21.42;50.57;100955.69;5019987;28;20213;-70
2022/10/22 05:16:28;;;;;;;3.33;2.47;;;;;;;21.40;50.38;100955.88;5017752;28;20847;-70
2022/10/22 05:18:53;;;;;;;3.30;2.30;;;;;;;21.38;50.38;100955.22;5015409;28;20037;-71
2022/10/22 05:21:20;;;;;;;4.03;2.20;;;;;;;21.33;50.63;100959.44;4999761;28;20045;-71
2022/10/22 05:23:49;;;;;;;3.65;2.30;;;;;;;21.38;50.45;100951.75;5000763;28;20081;-71
2022/10/22 05:26:17;;;;;;;3.90;2.50;;;;;;;21.34;50.55;100955.78;5013699;28;20052;-70
2022/10/22 05:28:42;;;;;;;4.50;2.47;;;;;;;21.39;50.48;100959.53;5017624;28;20037;-70
2022/10/22 05:31:11;;;;;;;3.83;2.28;;;;;;;21.35;50.72;100954.75;5010685;28;20503;-71
2022/10/22 05:33:37;;;;;;;3.08;2.53;;;;;;;21.36;50.57;100959.91;5014770;28;20121;-70
2022/10/22 05:36:04;;;;;;;3.53;2.35;;;;;;;21.33;50.47;100970.03;5020528;28;20051;-71
2022/10/22 05:38:31;;;;;;;3.97;2.50;;;;;;;21.34;50.50;100961.88;5014694;28;20045;-70
2022/10/22 05:41:08;;;;;;;2.85;2.22;;;;;;;21.30;50.84;100965.09;5014389;28;20048;-70
2022/10/22 05:43:34;;;;;;;3.15;2.30;;;;;;;21.29;50.70;100961.63;5019717;28;20064;-71
2022/10/22 05:46:05;;;;;;;3.03;2.30;;;;;;;21.31;50.47;100956.97;5015963;28;20037;-71
2022/10/22 05:48:31;;;;;;;3.55;2.50;;;;;;;21.35;50.66;100963.53;5014152;28;20111;-71
2022/10/22 05:50:56;;;;;;;4.03;2.30;;;;;;;21.34;50.57;100969.84;5024810;28;20037;-71
2022/10/22 05:53:22;;;;;;;4.30;2.30;;;;;;;21.36;50.81;100972.28;5021094;28;20053;-70
2022/10/22 05:55:48;;;;;;;2.88;2.30;;;;;;;21.35;50.23;100968.81;5016976;28;20044;-71
2022/10/22 05:58:13;;;;;;;4.30;2.90;;;;;;;21.26;50.84;100969.13;5018987;28;20041;-71
2022/10/22 06:00:39;;;;;;;3.83;2.50;;;;;;;21.34;50.55;100961.06;5018348;28;20076;-70
2022/10/22 06:03:04;;;;;;;5.72;2.53;;;;;;;21.37;50.15;100958.06;5020903;28;20037;-71
2022/10/22 06:05:35;;;;;;;3.45;2.20;;;;;;;21.32;50.40;100957.78;5021738;28;20741;-70
2022/10/22 06:08:00;;;;;;;2.53;2.10;;;;;;;21.30;50.57;100965.91;5009129;28;20038;-70
2022/10/22 06:10:26;;;;;;;4.35;2.53;;;;;;;21.32;50.31;100966.56;5015854;28;20107;-70
2022/10/22 06:12:52;;;;;;;2.80;2.25;;;;;;;21.32;50.42;100969.22;5018662;28;20313;-70
2022/10/22 06:15:17;;;;;;;4.47;2.45;;;;;;;21.33;50.31;100970.03;5014289;28;20033;-71
2022/10/22 06:17:44;;;;;;;4.03;2.72;;;;;;;21.38;50.33;100970.31;5012723;28;20041;-71
2022/10/22 06:20:11;;;;;;;2.83;2.35;;;;;;;21.33;50.40;100978.78;5010990;28;20033;-71
2022/10/22 06:22:37;;;;;;;3.10;2.35;;;;;;;21.31;50.45;100977.34;4997980;28;20535;-71
2022/10/22 06:25:03;;;;;;;4.22;2.40;;;;;;;21.30;50.45;100981.00;5014184;28;20056;-71
2022/10/22 06:27:29;;;;;;;4.90;2.67;;;;;;;21.28;50.49;100977.72;5017488;28;20083;-71
2022/10/22 06:29:54;;;;;;;3.63;2.38;;;;;;;21.37;50.25;100984.56;5014605;28;21134;-71
2022/10/22 06:32:20;;;;;;;3.50;2.40;;;;;;;21.31;50.46;100998.53;5020479;28;20057;-71
2022/10/22 06:34:47;;;;;;;3.88;2.75;;;;;;;21.33;50.32;100989.38;5016247;28;20476;-71
2022/10/22 06:37:14;;;;;;;4.97;2.50;;;;;;;21.35;50.28;100982.06;5020029;28;20042;-71
2022/10/22 06:39:40;;;;;;;4.20;2.42;;;;;;;21.28;50.75;100991.78;5011919;28;20614;-71
2022/10/22 06:42:05;;;;;;;3.33;2.50;;;;;;;21.30;50.25;100991.59;5011120;28;20041;-71
2022/10/22 06:44:33;;;;;;;3.35;2.22;;;;;;;21.37;50.52;100995.97;5011773;28;20049;-71
2022/10/22 06:46:58;;;;;;;4.00;2.40;;;;;;;21.25;50.67;100997.44;5012103;28;20171;-69
2022/10/22 06:49:24;;;;;;;4.38;2.78;;;;;;;21.34;50.39;101001.63;5003966;28;20041;-69
2022/10/22 06:51:51;;;;;;;3.13;2.20;;;;;;;21.29;50.44;100998.72;5017296;28;20145;-71
2022/10/22 06:54:17;;;;;;;3.15;2.63;;;;;;;21.35;50.26;101003.25;5014554;28;20038;-69
2022/10/22 06:56:43;;;;;;;3.47;2.42;;;;;;;21.35;50.50;101005.91;5019817;28;20287;-69
2022/10/22 06:59:09;;;;;;;3.60;2.40;;;;;;;21.29;50.85;101014.59;4982168;28;20467;-70
2022/10/22 07:01:35;;;;;;;5.97;2.75;;;;;;;21.32;50.57;101018.72;5018107;28;20102;-69
2022/10/22 07:04:01;;;;;;;3.88;2.58;;;;;;;21.31;50.46;101015.25;5013998;28;20052;-69
2022/10/22 07:06:28;;;;;;;4.75;2.80;;;;;;;21.31;50.68;101025.84;5016191;28;20076;-69
2022/10/22 07:08:55;;;;;;;5.07;2.97;;;;;;;21.29;50.48;101024.38;5016363;28;20041;-69
2022/10/22 07:11:24;;;;;;;5.57;3.03;;;;;;;21.24;50.62;101019.66;5014627;28;20088;-69
2022/10/22 07:13:49;;;;;;;3.10;2.50;;;;;;;21.24;50.39;101022.28;5020229;28;20730;-69
2022/10/22 07:16:16;;;;;;;5.43;3.13;;;;;;;21.30;50.45;101031.31;5017116;28;20115;-69
2022/10/22 07:18:43;;;;;;;5.15;2.65;;;;;;;21.28;50.70;101038.63;5009971;28;20044;-70
2022/10/22 07:21:10;;;;;;;3.50;2.53;;;;;;;21.33;50.50;101039.72;5009922;28;20147;-70
2022/10/22 07:23:36;;;;;;;5.30;3.05;;;;;;;21.32;50.39;101045.19;5008365;28;20820;-70
2022/10/22 07:26:05;;;;;;;4.28;2.85;;;;;;;21.28;50.47;101043.94;5007640;28;20041;-69
2022/10/22 07:28:32;;;;;;;5.05;3.05;;;;;;;21.25;50.81;101046.94;5008437;28;20446;-69
2022/10/22 07:30:58;;;;;;;7.10;2.97;;;;;;;21.30;50.55;101053.34;5015366;28;20115;-69
2022/10/22 07:33:24;;;;;;;4.85;3.20;;;;;;;21.29;50.60;101045.56;5007595;28;20068;-69
2022/10/22 07:35:49;;;;;;;4.60;2.63;;;;;;;21.29;50.21;101056.16;5011002;28;20033;-69
2022/10/22 07:38:15;;;;;;;6.72;3.10;;;;;;;21.25;50.59;101061.00;5011549;28;20045;-69
2022/10/22 07:40:40;;;;;;;4.50;3.10;;;;;;;21.26;50.68;101056.53;5013250;28;20736;-69
2022/10/22 07:43:06;;;;;;;7.18;3.10;;;;;;;21.24;50.40;101059.38;5010422;28;20076;-68
2022/10/22 07:45:32;;;;;;;4.72;3.03;;;;;;;21.27;50.53;101069.59;5012832;28;20507;-69
2022/10/22 07:47:59;;;;;;;4.85;2.60;;;;;;;21.25;50.59;101063.66;5009318;28;20538;-69
2022/10/22 07:50:25;;;;;;;5.57;3.10;;;;;;;21.27;50.13;101061.66;5014538;28;21194;-69
2022/10/22 07:52:53;;;;;;;7.65;3.35;;;;;;;21.28;50.47;101073.88;5012727;28;20078;-69
2022/10/22 07:55:19;;;;;;;4.57;3.10;;;;;;;21.29;50.43;101069.41;5016146;28;20054;-69
2022/10/22 07:57:44;;;;;;;6.55;2.85;;;;;;;21.26;50.56;101070.59;5014924;28;20045;-69
2022/10/22 08:00:11;;;;;;;5.55;3.10;;;;;;;21.30;50.19;101077.16;5010583;28;20042;-69
2022/10/22 08:02:39;;;;;;;5.43;2.70;;;;;;;21.19;50.41;101077.63;5012394;28;20073;-69
2022/10/22 08:05:05;;;;;;;5.88;2.90;;;;;;;21.20;50.41;101087.19;5011538;28;20492;-69
2022/10/22 08:07:31;;;;;;;5.93;3.00;;;;;;;21.20;50.32;101079.25;5008536;28;20060;-69
2022/10/22 08:09:56;;;;;;;5.03;3.10;;;;;;;21.29;50.34;101091.41;5010608;28;20037;-70
2022/10/22 08:12:22;;;;;;;9.35;3.60;;;;;;;21.27;50.54;101084.66;5005217;28;20037;-69
2022/10/22 08:14:47;;;;;;;5.80;3.03;;;;;;;21.24;50.20;101085.84;4998474;28;20037;-69
2022/10/22 08:17:13;;;;;;;6.38;2.92;;;;;;;21.23;50.33;101089.47;5011575;28;21633;-69
2022/10/22 08:19:39;;;;;;;4.25;2.83;;;;;;;21.22;50.38;101089.66;4997449;28;20136;-69
2022/10/22 08:22:04;;;;;;;4.53;2.85;;;;;;;21.24;50.15;101090.31;5014823;28;20041;-69
2022/10/22 08:24:30;;;;;;;9.43;2.78;;;;;;;21.23;50.21;101094.78;5011436;28;20534;-68
2022/10/22 08:26:55;;;;;;;5.20;2.83;;;;;;;21.19;50.32;101085.56;5019921;28;20048;-69
2022/10/22 08:29:22;;;;;;;5.30;3.15;;;;;;;21.23;50.47;101096.59;5016368;28;20037;-72
2022/10/22 08:31:49;;;;;;;7.60;3.72;;;;;;;21.21;50.15;101094.13;5015291;28;20400;-69
2022/10/22 08:34:14;;;;;;;5.35;3.13;;;;;;;21.23;50.33;101097.44;5011342;28;20553;-69
2022/10/22 08:36:40;;;;;;;6.10;3.20;;;;;;;21.27;50.11;101108.50;4996655;28;20045;-69
2022/10/22 08:39:05;;;;;;;5.70;3.13;;;;;;;21.26;50.45;101094.44;5013338;28;20037;-69
2022/10/22 08:41:34;;;;;;;6.20;3.10;;;;;;;21.23;50.25;101102.72;5013721;28;20563;-69
2022/10/22 08:44:21;;;;;;;5.68;2.88;;;;;;;21.26;50.29;101109.50;5012749;28;20088;-69
2022/10/22 08:47:13;;;;;;;6.05;3.22;;;;;;;21.23;50.46;101101.91;5012285;28;20048;-69
2022/10/22 08:49:41;;;;;;;5.63;3.20;;;;;;;21.28;50.18;101110.97;4992299;28;20049;-68
2022/10/22 08:52:14;;;;;;;5.72;3.40;;;;;;;21.28;50.50;101112.78;5014190;28;20502;-73
2022/10/22 08:54:51;;;;;;;7.28;3.15;;;;;;;21.30;50.08;101105.50;5016042;28;20065;-72
2022/10/22 08:57:41;;;;;;;7.43;3.17;;;;;;;21.28;50.47;101118.91;5012300;28;20110;-69
2022/10/22 09:00:19;;;;;;;7.30;3.05;;;;;;;21.28;50.82;101123.38;5010130;28;20116;-70
2022/10/22 09:03:13;;;;;;;10.20;3.65;;;;;;;21.27;50.44;101122.56;5003878;28;20056;-70
2022/10/22 09:05:41;;;;;;;9.15;3.30;;;;;;;21.28;50.60;101126.03;4980967;28;20049;-70
2022/10/22 09:08:16;;;;;;;6.50;3.25;;;;;;;21.31;50.42;101117.72;5012930;28;20043;-70
2022/10/22 09:10:49;;;;;;;9.50;3.38;;;;;;;21.30;50.50;101126.69;5013489;28;20038;-70
2022/10/22 09:13:18;;;;;;;4.80;3.13;;;;;;;21.25;50.50;101114.00;5016152;28;20545;-70
2022/10/22 09:15:48;;;;;;;5.88;3.25;;;;;;;21.23;50.83;101125.75;5016837;28;20052;-69
2022/10/22 09:18:39;;;;;;;8.18;3.45;;;;;;;21.22;50.97;101127.56;5009639;28;20045;-69
2022/10/22 09:21:35;;;;;;;6.47;3.17;;;;;;;21.30;50.61;101126.69;5016528;28;20068;-70
2022/10/22 09:24:09;;;;;;;8.93;3.63;;;;;;;21.25;50.82;101137.00;5011189;28;20598;-70
2022/10/22 09:26:37;;;;;;;6.97;3.35;;;;;;;21.24;51.07;101136.19;5001184;28;20041;-70
2022/10/22 09:29:03;;;;;;;6.05;3.13;;;;;;;21.33;50.91;101139.56;5014392;28;20613;-70
2022/10/22 09:31:31;;;;;;;8.07;3.55;;;;;;;21.22;50.95;101135.50;5012893;28;20564;-71
2022/10/22 09:33:58;;;;;;;9.30;2.85;;;;;;;21.28;50.92;101142.75;5016528;28;20037;-70
2022/10/22 09:36:27;;;;;;;10.75;3.58;;;;;;;21.27;51.06;101135.81;5015589;28;20053;-70
2022/10/22 09:38:52;;;;;;;10.13;2.87;;;;;;;21.18;51.15;101136.84;5019375;28;20056;-71
2022/10/22 09:41:22;;;;;;;9.25;3.67;;;;;;;21.15;51.08;101136.41;5013295;28;21024;-70
2022/10/22 09:43:48;;;;;;;7.03;3.05;;;;;;;21.25;51.15;101145.78;5013167;28;20045;-69
2022/10/22 09:46:22;;;;;;;5.40;2.70;;;;;;;21.26;51.21;101150.06;5012480;28;20044;-70
2022/10/22 09:49:15;;;;;;;9.85;3.40;;;;;;;21.25;51.12;101150.25;5011277;28;20160;-70
2022/10/22 09:51:47;;;;;;;8.50;3.75;;;;;;;21.27;51.25;101154.34;5009898;28;20061;-70
2022/10/22 09:54:19;;;;;;;8.43;3.30;;;;;;;21.23;51.21;101163.63;5009460;28;20041;-70
2022/10/22 09:57:12;;;;;;;7.95;3.25;;;;;;;21.26;51.07;101157.19;5020009;28;20046;-70
2022/10/22 09:59:40;;;;;;;7.80;3.10;;;;;;;21.26;51.12;101165.97;5017572;28;20510;-70
2022/10/22 10:02:15;;;;;;;10.07;3.55;;;;;;;21.26;51.26;101165.13;5023373;28;20048;-70
2022/10/22 10:04:52;;;;;;;8.32;3.00;;;;;;;21.27;51.00;101175.53;5016240;28;20068;-69
2022/10/22 10:07:25;;;;;;;6.75;3.58;;;;;;;21.26;51.33;101168.59;4997722;28;20045;-70
2022/10/22 10:09:52;;;;;;;6.63;3.33;;;;;;;21.25;51.11;101174.91;5016545;28;20033;-70
2022/10/22 10:12:41;;;;;;;8.55;2.90;;;;;;;21.35;51.03;101190.53;5019486;28;20032;-69
2022/10/22 10:15:23;;;;;;;7.57;3.20;;;;;;;21.27;51.33;101187.97;5016873;28;20507;-70
2022/10/22 10:18:22;;;;;;;7.57;3.90;;;;;;;21.24;51.15;101191.81;5013842;28;20098;-70
2022/10/22 10:21:29;;;;;;;6.90;3.03;;;;;;;21.29;51.25;101192.06;5016112;28;20091;-70
2022/10/22 10:24:19;;;;;;;6.63;2.97;;;;;;;21.27;51.27;101185.31;4936144;28;20445;-70
2022/10/22 10:26:57;;;;;;;7.72;3.20;;;;;;;21.28;51.18;101201.03;5011315;28;20053;-70
2022/10/22 10:30:00;;;;;;;10.90;3.33;;;;;;;21.24;51.38;101205.03;5014323;28;20753;-69
2022/10/22 10:32:50;;;;;;;6.13;3.03;;;;;;;21.37;50.99;101201.78;5016145;28;20596;-70
2022/10/22 10:35:25;;;;;;;14.27;3.53;;;;;;;21.27;51.33;101198.56;5001303;28;20052;-69
2022/10/22 10:38:15;;;;;;;11.32;3.70;;;;;;;21.29;50.98;101202.66;5015531;28;20093;-70
2022/10/22 10:40:48;;;;;;;;;;;;;;;21.30;51.22;101203.50;5012787;28;20124;-69
2022/10/22 10:43:19;;;;;;;8.13;3.70;;;;;;;21.32;51.23;101212.06;5013760;28;19944;-69
2022/10/22 10:46:04;;;;;;;6.40;3.25;;;;;;;21.32;50.99;101206.78;5018164;28;20485;-69
2022/10/22 10:48:55;;;;;;;7.57;2.95;;;;;;;21.33;51.04;101206.59;5010783;28;20037;-69
2022/10/22 10:51:30;;;;;;;6.18;3.08;;;;;;;21.33;51.20;101205.78;5010874;28;20125;-68
2022/10/22 10:54:14;;;;;;;9.45;3.75;;;;;;;21.30;51.51;101208.78;5014918;28;20392;-69
2022/10/22 10:56:42;;;;;;;5.10;3.20;;;;;;;21.30;51.48;101219.38;5013841;28;20095;-70
2022/10/22 10:59:29;;;;;;;7.03;3.80;;;;;;;21.31;51.50;101221.84;5012388;28;20413;-69
2022/10/22 11:02:41;;;;;;;5.97;3.15;;;;;;;21.36;50.91;101218.66;5010313;28;20033;-69
2022/10/22 11:05:22;;;;;;;5.40;3.15;;;;;;;21.26;51.52;101223.41;5013649;28;20041;-71
2022/10/22 11:07:52;;;;;;;7.95;3.75;;;;;;;21.27;51.43;101222.41;5021325;28;20037;-69
2022/10/22 11:10:28;;;;;;;7.13;3.20;;;;;;;21.35;51.41;101228.44;5017847;28;20120;-70
2022/10/22 11:13:07;;;;;;;7.72;3.03;;;;;;;21.35;51.35;101225.78;5013702;28;20095;-70
2022/10/22 11:15:36;;;;;;;6.32;3.25;;;;;;;21.34;51.01;101234.72;5013471;28;21078;-70
2022/10/22 11:18:40;;;;;;;10.95;3.83;;;;;;;21.35;51.31;101232.91;5010062;28;20108;-69
2022/10/22 11:21:24;;;;;;;9.23;3.22;;;;;;;21.16;51.75;101225.44;5006086;28;20045;-70
2022/10/22 11:23:59;;;;;;;8.65;3.58;;;;;;;21.36;51.36;101251.28;4992519;28;20033;-69
2022/10/22 11:26:47;;;;;;;5.85;3.20;;;;;;;21.35;51.45;101259.41;5010147;28;20833;-69
2022/10/22 11:29:24;;;;;;;7.03;3.00;;;;;;;21.40;51.02;101254.41;5013067;28;20099;-69
2022/10/22 11:31:53;;;;;;;5.82;3.00;;;;;;;21.33;51.27;101242.88;5012700;28;20479;-69
2022/10/22 11:34:30;;;;;;;6.33;3.20;;;;;;;21.34;51.22;101245.31;4997606;28;20045;-69
2022/10/22 11:36:57;;;;;;;10.52;3.72;;;;;;;21.35;51.42;101251.44;4998419;28;20833;-69
2022/10/22 11:39:35;;;;;;;13.48;3.40;;;;;;;21.37;51.46;101247.66;5007849;28;20041;-65